createdAt,value
2018-01-23T00:02:09.563Z,8.77
2018-01-23T00:04:37.776Z,8.73
2018-01-23T00:07:06.292Z,8.47
2018-01-23T00:09:34.670Z,8.17
2018-01-23T00:12:02.786Z,7.77
2018-01-23T00:14:34.756Z,7.73
2018-01-23T00:30:01.882Z,6.97
2018-01-23T00:32:30.032Z,7.20
2018-01-23T00:34:58.400Z,7.30
2018-01-23T00:37:26.540Z,8.37
2018-01-23T00:39:54.694Z,8.10
2018-01-23T00:42:22.823Z,7.33
2018-01-23T00:44:52.422Z,7.30
2018-01-23T00:47:20.540Z,7.47
2018-01-23T00:49:48.687Z,7.67
2018-01-23T00:52:18.381Z,8.93
2018-01-23T00:54:46.503Z,7.70
2018-01-23T00:57:14.704Z,8.93
2018-01-23T00:59:48.637Z,8.00
2018-01-23T01:02:22.953Z,8.30
2018-01-23T01:04:51.059Z,8.00
2018-01-23T01:07:19.165Z,8.73
2018-01-23T01:09:47.269Z,8.60
2018-01-23T01:12:15.415Z,8.40
2018-01-23T01:14:43.559Z,8.87
2018-01-23T01:33:20.525Z,9.33
2018-01-23T01:35:48.663Z,9.87
2018-01-23T01:38:17.361Z,12.07
2018-01-23T01:40:45.463Z,11.60
2018-01-23T01:43:13.568Z,11.20
2018-01-23T01:45:41.694Z,11.37
2018-01-23T01:48:09.818Z,11.43
2018-01-23T01:50:41.850Z,10.60
2018-01-23T01:53:09.999Z,11.07
2018-01-23T01:55:38.136Z,11.23
2018-01-23T01:58:06.280Z,10.90
2018-01-23T02:00:34.614Z,10.17
2018-01-23T02:03:02.706Z,10.17
2018-01-23T02:05:30.818Z,10.77
2018-01-23T02:07:59.356Z,10.57
2018-01-23T02:10:27.899Z,10.47
2018-01-23T02:12:56.035Z,11.17
2018-01-23T02:15:27.917Z,9.50
2018-01-23T02:17:56.817Z,9.53
2018-01-23T02:20:24.977Z,8.93
2018-01-23T02:22:53.276Z,9.27
2018-01-23T02:25:21.459Z,8.67
2018-01-23T02:27:49.825Z,9.00
2018-01-23T02:30:18.027Z,9.57
2018-01-23T02:32:46.166Z,8.67
2018-01-23T02:35:14.294Z,9.17
2018-01-23T02:37:43.157Z,7.80
2018-01-23T02:40:12.039Z,6.97
2018-01-23T02:42:40.165Z,7.40
2018-01-23T02:45:08.339Z,8.07
2018-01-23T02:47:36.485Z,8.23
2018-01-23T02:50:04.934Z,8.90
2018-01-23T02:52:33.634Z,8.30
2018-01-23T02:55:01.740Z,9.27
2018-01-23T02:57:30.620Z,8.90
2018-01-23T02:59:58.752Z,9.67
2018-01-23T03:02:26.858Z,9.37
2018-01-23T03:04:55.002Z,8.87
2018-01-23T03:07:23.092Z,9.27
2018-01-23T03:09:51.180Z,9.27
2018-01-23T03:12:19.274Z,8.80
2018-01-23T03:14:47.458Z,9.30
2018-01-23T03:17:15.600Z,9.90
2018-01-23T03:19:43.940Z,8.77
2018-01-23T03:31:53.976Z,7.43
2018-01-23T03:34:22.097Z,9.23
2018-01-23T03:36:50.215Z,8.73
2018-01-23T03:39:19.041Z,8.93
2018-01-23T03:41:47.821Z,8.67
2018-01-23T03:57:11.044Z,6.33
2018-01-23T03:59:39.248Z,7.03
2018-01-23T04:02:07.436Z,6.93
2018-01-23T04:04:35.566Z,6.70
2018-01-23T04:07:07.540Z,7.27
2018-01-23T04:09:35.651Z,7.50
2018-01-23T04:12:03.777Z,6.60
2018-01-23T04:14:31.886Z,6.67
2018-01-23T04:17:03.422Z,6.90
2018-01-23T04:19:32.260Z,7.03
2018-01-23T04:22:00.438Z,6.17
2018-01-23T04:24:28.540Z,5.50
2018-01-23T04:26:56.698Z,4.97
2018-01-23T04:29:24.816Z,5.53
2018-01-23T04:31:53.396Z,5.20
2018-01-23T04:34:26.206Z,5.20
2018-01-23T04:36:54.324Z,6.30
2018-01-23T04:39:22.418Z,6.23
2018-01-23T04:41:50.538Z,6.57
2018-01-23T04:44:18.654Z,6.40
2018-01-23T04:46:47.544Z,6.37
2018-01-23T04:49:15.663Z,5.70
2018-01-23T04:51:43.819Z,5.97
2018-01-23T04:54:11.955Z,5.23
2018-01-23T04:56:44.089Z,5.43
2018-01-23T04:59:12.248Z,5.30
2018-01-23T05:01:40.361Z,6.30
2018-01-23T05:04:12.237Z,5.63
2018-01-23T05:06:41.121Z,6.03
2018-01-23T05:09:09.839Z,5.37
2018-01-23T05:11:38.683Z,4.67
2018-01-23T05:14:14.428Z,5.07
2018-01-23T05:16:43.199Z,5.10
2018-01-23T05:19:11.315Z,5.27
2018-01-23T05:21:40.809Z,4.70
2018-01-23T05:24:09.710Z,5.20
2018-01-23T05:26:37.884Z,4.97
2018-01-23T05:29:06.483Z,5.40
2018-01-23T05:31:34.578Z,4.73
2018-01-23T05:34:02.672Z,5.23
2018-01-23T05:49:25.820Z,4.60
2018-01-23T05:51:53.927Z,4.97
2018-01-23T05:54:22.083Z,6.20
2018-01-23T05:56:50.182Z,4.60
2018-01-23T05:59:18.357Z,5.70
2018-01-23T06:01:46.480Z,5.23
2018-01-23T06:04:15.495Z,5.10
2018-01-23T06:06:43.602Z,5.10
2018-01-23T06:09:11.692Z,5.23
2018-01-23T06:11:39.805Z,5.23
2018-01-23T06:14:07.931Z,5.97
2018-01-23T06:16:36.030Z,5.43
2018-01-23T06:19:04.113Z,5.93
2018-01-23T06:21:32.223Z,5.77
2018-01-23T06:24:01.091Z,6.13
2018-01-23T06:26:29.193Z,5.50
2018-01-23T06:28:58.093Z,5.80
2018-01-23T06:31:26.947Z,5.70
2018-01-23T06:33:55.077Z,5.80
2018-01-23T06:36:23.173Z,5.70
2018-01-23T06:38:51.491Z,5.43
2018-01-23T06:41:19.574Z,5.20
2018-01-23T06:43:48.464Z,6.30
2018-01-23T06:46:16.595Z,5.27
2018-01-23T06:48:50.545Z,5.20
2018-01-23T06:51:18.633Z,5.47
2018-01-23T06:53:46.771Z,5.40
2018-01-23T06:56:15.014Z,5.63
2018-01-23T06:58:43.134Z,5.33
2018-01-23T07:01:11.241Z,5.57
2018-01-23T07:03:39.357Z,5.73
2018-01-23T07:06:07.438Z,6.30
2018-01-23T07:08:35.514Z,6.03
2018-01-23T07:11:03.630Z,6.57
2018-01-23T07:13:31.736Z,7.30
2018-01-23T07:15:59.868Z,7.37
2018-01-23T07:18:27.998Z,7.10
2018-01-23T07:20:56.106Z,6.83
2018-01-23T07:23:24.200Z,7.53
2018-01-23T07:25:52.311Z,7.30
2018-01-23T07:28:21.224Z,7.17
2018-01-23T07:30:49.307Z,6.73
2018-01-23T07:33:17.419Z,7.93
2018-01-23T07:35:45.509Z,8.17
2018-01-23T07:38:13.605Z,7.07
2018-01-23T07:40:41.687Z,7.60
2018-01-23T07:43:09.809Z,7.03
2018-01-23T07:45:38.011Z,6.10
2018-01-23T07:48:06.163Z,6.73
2018-01-23T07:50:34.255Z,7.07
2018-01-23T07:53:03.113Z,6.90
2018-01-23T07:55:31.186Z,5.83
2018-01-23T07:57:59.297Z,6.47
2018-01-23T08:00:27.424Z,6.07
2018-01-23T08:02:55.528Z,5.90
2018-01-23T08:05:23.626Z,6.50
2018-01-23T08:07:52.610Z,6.67
2018-01-23T08:10:20.690Z,6.00
2018-01-23T08:12:48.808Z,6.30
2018-01-23T08:15:16.930Z,6.50
2018-01-23T08:17:45.012Z,5.83
2018-01-23T08:20:13.106Z,5.37
2018-01-23T08:22:41.199Z,5.70
2018-01-23T08:25:09.300Z,5.60
2018-01-23T08:27:38.144Z,5.60
2018-01-23T08:30:06.244Z,5.03
2018-01-23T08:32:34.346Z,4.93
2018-01-23T08:35:02.456Z,5.00
2018-01-23T08:37:30.544Z,5.30
2018-01-23T08:39:58.668Z,5.67
2018-01-23T08:42:26.755Z,5.03
2018-01-23T08:44:54.911Z,5.10
2018-01-23T08:47:23.350Z,5.00
2018-01-23T08:49:51.487Z,4.87
2018-01-23T08:52:19.669Z,4.23
2018-01-23T08:54:47.833Z,4.50
2018-01-23T08:57:15.997Z,4.63
2018-01-23T08:59:44.039Z,4.63
2018-01-23T09:02:12.127Z,4.63
2018-01-23T09:04:40.213Z,4.70
2018-01-23T09:07:08.319Z,4.77
2018-01-23T09:09:36.419Z,5.00
2018-01-23T09:12:04.623Z,4.07
2018-01-23T09:14:32.707Z,3.93
2018-01-23T09:17:00.824Z,4.10
2018-01-23T09:19:28.913Z,4.47
2018-01-23T09:21:57.763Z,4.03
2018-01-23T09:24:25.867Z,4.20
2018-01-23T09:26:54.083Z,3.80
2018-01-23T09:29:22.177Z,3.80
2018-01-23T09:31:50.333Z,4.03
2018-01-23T09:34:19.284Z,3.53
2018-01-23T09:36:47.363Z,3.67
2018-01-23T09:39:15.447Z,3.30
2018-01-23T09:41:43.676Z,3.60
2018-01-23T09:44:11.868Z,3.63
2018-01-23T09:46:39.966Z,3.07
2018-01-23T09:49:08.813Z,3.57
2018-01-23T09:51:36.891Z,3.23
2018-01-23T09:54:04.982Z,3.30
2018-01-23T09:56:33.068Z,3.17
2018-01-23T09:59:02.524Z,3.20
2018-01-23T10:01:30.650Z,3.40
2018-01-23T10:03:58.766Z,3.40
2018-01-23T10:06:26.846Z,3.00
2018-01-23T10:08:55.543Z,3.00
2018-01-23T10:11:23.638Z,3.27
2018-01-23T10:13:52.413Z,3.10
2018-01-23T10:16:20.491Z,2.80
2018-01-23T10:18:49.388Z,2.60
2018-01-23T10:21:17.488Z,3.00
2018-01-23T10:23:45.565Z,2.67
2018-01-23T10:26:13.671Z,2.93
2018-01-23T10:28:41.759Z,2.87
2018-01-23T10:31:09.850Z,2.97
2018-01-23T10:33:37.931Z,2.83
2018-01-23T10:36:06.093Z,2.70
2018-01-23T10:38:34.175Z,2.73
2018-01-23T10:41:02.271Z,2.70
2018-01-23T10:43:30.353Z,2.47
2018-01-23T10:45:58.451Z,3.10
2018-01-23T10:48:26.527Z,2.67
2018-01-23T10:50:54.629Z,2.87
2018-01-23T10:53:22.795Z,2.83
2018-01-23T10:55:51.011Z,2.63
2018-01-23T10:58:19.107Z,2.23
2018-01-23T11:00:52.709Z,2.63
2018-01-23T11:03:20.803Z,2.73
2018-01-23T11:05:48.888Z,2.77
2018-01-23T11:08:17.784Z,2.83
2018-01-23T11:10:45.874Z,2.80
2018-01-23T11:13:14.004Z,2.93
2018-01-23T11:15:42.082Z,2.63
2018-01-23T11:18:10.162Z,2.17
2018-01-23T11:20:38.239Z,2.40
2018-01-23T11:23:06.412Z,2.67
2018-01-23T11:25:35.266Z,2.60
2018-01-23T11:28:04.120Z,2.20
2018-01-23T11:30:32.224Z,2.17
2018-01-23T11:33:01.073Z,2.50
2018-01-23T11:35:29.164Z,2.00
2018-01-23T11:37:57.254Z,2.43
2018-01-23T11:40:25.358Z,2.50
2018-01-23T11:42:53.448Z,2.50
2018-01-23T11:45:22.292Z,2.10
2018-01-23T11:47:50.389Z,2.13
2018-01-23T11:50:19.298Z,2.33
2018-01-23T11:52:47.499Z,2.70
2018-01-23T11:55:15.586Z,2.57
2018-01-23T11:57:43.671Z,2.23
2018-01-23T12:00:11.809Z,2.73
2018-01-23T12:02:39.901Z,2.60
2018-01-23T12:05:07.987Z,2.80
2018-01-23T12:07:36.154Z,2.20
2018-01-23T12:10:04.187Z,2.07
2018-01-23T12:12:32.319Z,2.20
2018-01-23T12:15:00.431Z,2.80
2018-01-23T12:17:28.515Z,2.40
2018-01-23T12:19:56.635Z,2.67
2018-01-23T12:22:24.780Z,2.47
2018-01-23T12:24:52.883Z,2.37
2018-01-23T12:27:20.958Z,2.30
2018-01-23T12:29:49.051Z,2.90
2018-01-23T12:32:17.908Z,2.07
2018-01-23T12:34:46.012Z,1.93
2018-01-23T12:37:14.961Z,2.60
2018-01-23T12:39:43.082Z,2.53
2018-01-23T12:42:11.173Z,2.43
2018-01-23T12:44:40.129Z,2.60
2018-01-23T12:47:08.252Z,2.43
2018-01-23T12:49:36.431Z,2.43
2018-01-23T12:52:04.580Z,2.73
2018-01-23T12:54:32.763Z,2.13
2018-01-23T12:57:00.968Z,2.57
2018-01-23T12:59:29.046Z,2.50
2018-01-23T13:01:57.140Z,2.50
2018-01-23T13:04:25.226Z,2.53
2018-01-23T13:06:53.322Z,2.50
2018-01-23T13:09:21.404Z,2.10
2018-01-23T13:11:49.570Z,1.80
2018-01-23T13:14:17.723Z,2.30
2018-01-23T13:16:45.954Z,2.30
2018-01-23T13:19:14.028Z,2.13
2018-01-23T13:21:42.164Z,1.97
2018-01-23T13:24:10.234Z,2.27
2018-01-23T13:26:38.317Z,1.80
2018-01-23T13:29:06.415Z,2.30
2018-01-23T13:31:34.509Z,2.30
2018-01-23T13:34:02.602Z,2.60
2018-01-23T13:36:30.762Z,2.53
2018-01-23T13:38:58.848Z,2.60
2018-01-23T13:41:26.929Z,2.73
2018-01-23T13:43:55.023Z,2.80
2018-01-23T13:46:23.099Z,2.53
2018-01-23T13:48:51.274Z,2.30
2018-01-23T13:51:19.377Z,2.93
2018-01-23T13:53:47.484Z,2.60
2018-01-23T13:56:15.573Z,2.50
2018-01-23T13:58:43.664Z,2.37
2018-01-23T14:01:11.768Z,2.60
2018-01-23T14:03:39.854Z,2.67
2018-01-23T14:06:08.736Z,2.30
2018-01-23T14:08:36.855Z,2.70
2018-01-23T14:11:04.947Z,2.47
2018-01-23T14:13:33.031Z,2.50
2018-01-23T14:16:01.696Z,2.63
2018-01-23T14:18:29.778Z,2.40
2018-01-23T14:20:57.884Z,2.00
2018-01-23T14:23:25.962Z,2.33
2018-01-23T14:25:54.040Z,2.37
2018-01-23T14:28:22.274Z,2.73
2018-01-23T14:30:50.462Z,2.20
2018-01-23T14:33:18.586Z,2.10
2018-01-23T14:35:46.671Z,2.10
2018-01-23T14:38:14.762Z,2.37
2018-01-23T14:40:42.842Z,2.43
2018-01-23T14:43:10.931Z,2.20
2018-01-23T14:45:39.139Z,2.27
2018-01-23T14:48:07.242Z,2.40
2018-01-23T14:50:35.839Z,2.53
2018-01-23T14:53:03.929Z,2.30
2018-01-23T14:55:32.040Z,2.33
2018-01-23T14:58:00.205Z,2.23
2018-01-23T15:00:28.323Z,2.93
2018-01-23T15:02:56.403Z,2.10
2018-01-23T15:05:25.103Z,2.90
2018-01-23T15:07:53.175Z,2.87
2018-01-23T15:10:21.367Z,2.60
2018-01-23T15:12:49.448Z,2.53
2018-01-23T15:15:18.120Z,2.40
2018-01-23T15:17:46.260Z,2.60
2018-01-23T15:20:14.394Z,2.40
2018-01-23T15:22:42.558Z,2.50
2018-01-23T15:25:10.660Z,2.53
2018-01-23T15:27:38.804Z,2.50
2018-01-23T15:30:06.928Z,2.53
2018-01-23T15:32:35.026Z,2.60
2018-01-23T15:35:03.125Z,1.90
2018-01-23T15:37:31.213Z,1.93
2018-01-23T15:39:59.361Z,1.90
2018-01-23T15:42:27.511Z,2.17
2018-01-23T15:44:55.582Z,1.97
2018-01-23T15:47:24.290Z,1.90
2018-01-23T15:49:52.472Z,2.20
2018-01-23T15:52:20.823Z,2.00
2018-01-23T15:54:48.983Z,2.03
2018-01-23T15:57:17.119Z,2.43
2018-01-23T15:59:45.218Z,3.07
2018-01-23T16:02:13.303Z,3.00
2018-01-23T16:04:42.101Z,2.93
2018-01-23T16:07:10.178Z,2.83
2018-01-23T16:09:38.405Z,2.23
2018-01-23T16:12:06.579Z,2.10
2018-01-23T16:14:34.672Z,2.50
2018-01-23T16:17:02.783Z,2.87
2018-01-23T16:19:31.505Z,2.57
2018-01-23T16:21:59.605Z,2.93
2018-01-23T16:24:27.827Z,2.93
2018-01-23T16:26:55.916Z,2.47
2018-01-23T16:29:24.014Z,2.20
2018-01-23T16:31:52.189Z,2.40
2018-01-23T16:34:20.304Z,2.30
2018-01-23T16:36:48.384Z,2.63
2018-01-23T16:39:16.469Z,2.10
2018-01-23T16:41:44.660Z,2.63
2018-01-23T16:44:12.844Z,2.30
2018-01-23T16:46:40.944Z,2.30
2018-01-23T16:49:09.516Z,2.80
2018-01-23T16:51:37.682Z,2.80
2018-01-23T16:54:05.874Z,2.10
2018-01-23T16:56:34.060Z,2.47
2018-01-23T16:59:02.141Z,3.60
2018-01-23T17:01:30.992Z,2.00
2018-01-23T17:03:59.108Z,3.00
2018-01-23T17:06:28.304Z,2.37
2018-01-23T17:08:56.401Z,2.83
2018-01-23T17:11:24.509Z,2.87
2018-01-23T17:13:52.610Z,2.43
2018-01-23T17:16:21.459Z,2.90
2018-01-23T17:18:49.558Z,3.37
2018-01-23T17:21:17.640Z,3.90
2018-01-23T17:23:45.824Z,2.93
2018-01-23T17:26:14.059Z,2.90
2018-01-23T17:28:42.170Z,2.70
2018-01-23T17:31:10.279Z,3.80
2018-01-23T17:33:38.400Z,4.30
2018-01-23T17:36:06.489Z,5.17
2018-01-23T17:38:34.603Z,3.37
2018-01-23T17:41:02.718Z,5.47
2018-01-23T17:43:30.808Z,5.57
2018-01-23T17:45:58.985Z,3.83
2018-01-23T17:48:27.313Z,3.50
2018-01-23T17:50:55.417Z,5.30
2018-01-23T17:53:23.555Z,5.57
2018-01-23T17:55:51.650Z,5.67
2018-01-23T17:58:19.749Z,4.77
2018-01-23T18:00:47.844Z,4.67
2018-01-23T18:03:15.938Z,4.37
2018-01-23T18:05:44.102Z,4.43
2018-01-23T18:08:12.232Z,3.80
2018-01-23T18:10:41.140Z,3.80
2018-01-23T18:13:09.230Z,3.80
2018-01-23T18:15:37.320Z,3.53
2018-01-23T18:18:05.448Z,3.27
2018-01-23T18:20:33.540Z,4.67
2018-01-23T18:23:01.657Z,4.53
2018-01-23T18:25:29.812Z,4.57
2018-01-23T18:27:57.912Z,4.43
2018-01-23T18:30:26.006Z,3.73
2018-01-23T18:32:54.110Z,3.90
2018-01-23T18:35:22.197Z,3.93
2018-01-23T18:37:50.382Z,3.70
2018-01-23T18:40:18.537Z,3.70
2018-01-23T18:42:46.655Z,3.80
2018-01-23T18:45:14.752Z,4.03
2018-01-23T18:47:42.860Z,4.40
2018-01-23T18:50:10.962Z,4.10
2018-01-23T18:52:39.058Z,3.83
2018-01-23T18:55:07.199Z,4.33
2018-01-23T18:57:35.295Z,3.87
2018-01-23T19:00:04.213Z,4.43
2018-01-23T19:02:32.325Z,4.20
2018-01-23T19:05:00.429Z,4.10
2018-01-23T19:07:28.522Z,3.77
2018-01-23T19:09:56.623Z,4.13
2018-01-23T19:12:24.809Z,3.67
2018-01-23T19:14:53.029Z,4.10
2018-01-23T19:17:21.251Z,4.00
2018-01-23T19:19:49.449Z,3.63
2018-01-23T19:22:17.560Z,3.87
2018-01-23T19:24:45.652Z,4.50
2018-01-23T19:27:13.742Z,4.03
2018-01-23T19:29:41.876Z,4.13
2018-01-23T19:32:09.984Z,4.23
2018-01-23T19:34:38.065Z,3.60
2018-01-23T19:37:06.158Z,4.13
2018-01-23T19:39:34.285Z,3.73
2018-01-23T19:42:02.373Z,3.90
2018-01-23T19:44:30.485Z,4.60
2018-01-23T19:46:59.422Z,4.37
2018-01-23T19:49:27.513Z,4.50
2018-01-23T19:51:55.626Z,4.10
2018-01-23T19:54:23.720Z,4.27
2018-01-23T19:56:51.815Z,4.13
2018-01-23T19:59:19.970Z,4.90
2018-01-23T20:01:48.063Z,4.00
2018-01-23T20:04:16.181Z,3.63
2018-01-23T20:06:44.274Z,3.70
2018-01-23T20:09:12.394Z,3.93
2018-01-23T20:11:40.518Z,3.43
2018-01-23T20:14:10.458Z,4.00
2018-01-23T20:16:38.633Z,4.00
2018-01-23T20:19:06.743Z,3.83
2018-01-23T20:21:35.637Z,4.07
2018-01-23T20:24:03.735Z,4.43
2018-01-23T20:26:32.644Z,3.60
2018-01-23T20:29:00.749Z,3.50
2018-01-23T20:44:23.884Z,3.40
2018-01-23T20:46:52.745Z,3.80
2018-01-23T20:49:20.871Z,4.10
2018-01-23T20:51:48.964Z,3.57
2018-01-23T20:54:17.155Z,4.47
2018-01-23T20:56:45.277Z,4.97
2018-01-23T20:59:13.486Z,4.63
2018-01-23T21:01:41.830Z,4.47
2018-01-23T21:04:10.566Z,4.57
2018-01-23T21:06:38.721Z,5.30
2018-01-23T21:09:06.820Z,5.93
2018-01-23T21:11:34.924Z,6.00
2018-01-23T21:14:03.276Z,7.00
2018-01-23T21:16:31.396Z,6.20
2018-01-23T21:18:59.535Z,9.73
2018-01-23T21:21:27.798Z,12.47
2018-01-23T21:23:56.044Z,14.13
2018-01-23T21:26:24.217Z,14.20
2018-01-23T21:28:52.436Z,16.30
2018-01-23T21:31:24.618Z,15.07
2018-01-23T21:33:52.738Z,9.80
2018-01-23T21:36:21.631Z,7.67
2018-01-23T21:38:50.615Z,7.23
2018-01-23T21:41:18.720Z,8.20
2018-01-23T21:43:46.887Z,7.13
2018-01-23T21:46:15.056Z,8.43
2018-01-23T21:48:43.189Z,9.80
2018-01-23T21:51:11.324Z,10.43
2018-01-23T21:53:39.451Z,13.00
2018-01-23T21:56:07.549Z,14.03
2018-01-23T21:58:35.656Z,14.37
2018-01-23T22:01:03.763Z,13.53
2018-01-23T22:03:32.755Z,9.20
2018-01-23T22:06:00.856Z,8.10
2018-01-23T22:08:29.023Z,5.87
2018-01-23T22:10:57.891Z,5.33
2018-01-23T22:13:26.006Z,6.13
2018-01-23T22:15:54.147Z,7.10
2018-01-23T22:18:22.257Z,7.40
2018-01-23T22:20:50.382Z,7.00
2018-01-23T22:23:18.493Z,9.70
2018-01-23T22:25:47.086Z,11.57
2018-01-23T22:28:15.183Z,10.60
2018-01-23T22:30:43.356Z,10.37
2018-01-23T22:33:11.456Z,10.50
2018-01-23T22:35:40.954Z,12.93
2018-01-23T22:38:09.052Z,16.03
2018-01-23T22:40:37.510Z,14.67
2018-01-23T22:43:06.548Z,16.50
2018-01-23T22:45:34.657Z,17.90
2018-01-23T22:48:02.776Z,12.37
2018-01-23T22:50:30.887Z,10.63
2018-01-23T22:52:59.018Z,13.50
2018-01-23T22:55:27.112Z,17.03
2018-01-23T22:57:55.323Z,18.23
2018-01-23T23:00:23.485Z,18.37
2018-01-23T23:02:52.147Z,16.90
2018-01-23T23:05:20.447Z,14.90
2018-01-23T23:07:48.611Z,14.17
2018-01-23T23:10:16.717Z,12.80
2018-01-23T23:12:44.819Z,15.97
2018-01-23T23:15:12.923Z,16.07
2018-01-23T23:17:41.065Z,15.00
2018-01-23T23:20:09.241Z,14.93
2018-01-23T23:22:37.345Z,14.33
2018-01-23T23:25:05.463Z,12.73
2018-01-23T23:27:33.571Z,11.50
2018-01-23T23:30:01.675Z,10.80
2018-01-23T23:32:29.788Z,11.03
2018-01-23T23:34:57.979Z,10.40
2018-01-23T23:37:26.111Z,9.13
2018-01-23T23:39:54.211Z,8.20
2018-01-23T23:42:22.324Z,7.30
2018-01-23T23:44:51.287Z,9.37
2018-01-23T23:47:19.384Z,9.13
2018-01-23T23:49:47.491Z,8.23
2018-01-23T23:52:15.716Z,7.63
2018-01-23T23:54:43.937Z,7.40
2018-01-23T23:57:12.406Z,7.13
2018-01-23T23:59:40.522Z,8.40
